sensor_id;sensor_type;location;lat;lon;timestamp;pressure;altitude;pressure_sealevel;temperature;humidity
70009;BME280;59542;37.950;-122.338;2022-10-31T00:00:25;101575.09;;;14.84;73.02
70009;BME280;59542;37.950;-122.338;2022-10-31T00:02:51;101569.13;;;14.75;73.76
70009;BME280;59542;37.950;-122.338;2022-10-31T00:05:17;101569.88;;;14.50;73.78
70009;BME280;59542;37.950;-122.338;2022-10-31T00:07:43;101563.00;;;14.55;74.03
70009;BME280;59542;37.950;-122.338;2022-10-31T00:10:09;101558.13;;;14.25;75.24
70009;BME280;59542;37.950;-122.338;2022-10-31T00:12:35;101571.13;;;14.41;75.27
70009;BME280;59542;37.950;-122.338;2022-10-31T00:15:02;101564.09;;;14.40;75.02
70009;BME280;59542;37.950;-122.338;2022-10-31T00:17:28;101563.13;;;14.21;75.72
70009;BME280;59542;37.950;-122.338;2022-10-31T00:19:54;101564.63;;;14.11;76.21
70009;BME280;59542;37.950;-122.338;2022-10-31T00:22:20;101572.50;;;14.06;76.78
70009;BME280;59542;37.950;-122.338;2022-10-31T00:24:46;101565.03;;;14.08;76.45
70009;BME280;59542;37.950;-122.338;2022-10-31T00:27:12;101572.31;;;13.87;77.54
70009;BME280;59542;37.950;-122.338;2022-10-31T00:29:39;101566.34;;;13.72;79.01
70009;BME280;59542;37.950;-122.338;2022-10-31T00:32:05;101568.78;;;13.93;78.25
70009;BME280;59542;37.950;-122.338;2022-10-31T00:34:31;101569.22;;;13.70;79.27
70009;BME280;59542;37.950;-122.338;2022-10-31T00:36:57;101560.53;;;13.88;78.54
70009;BME280;59542;37.950;-122.338;2022-10-31T00:39:23;101566.28;;;13.98;77.50
70009;BME280;59542;37.950;-122.338;2022-10-31T00:41:49;101565.47;;;13.91;77.97
70009;BME280;59542;37.950;-122.338;2022-10-31T00:44:16;101557.19;;;13.99;77.64
70009;BME280;59542;37.950;-122.338;2022-10-31T00:46:42;101556.78;;;13.96;77.94
70009;BME280;59542;37.950;-122.338;2022-10-31T00:49:08;101561.78;;;13.86;78.47
70009;BME280;59542;37.950;-122.338;2022-10-31T00:51:34;101568.63;;;13.75;79.26
70009;BME280;59542;37.950;-122.338;2022-10-31T00:54:00;101563.03;;;13.63;80.17
70009;BME280;59542;37.950;-122.338;2022-10-31T00:56:26;101570.47;;;13.74;79.34
70009;BME280;59542;37.950;-122.338;2022-10-31T00:58:52;101561.19;;;13.64;79.99
70009;BME280;59542;37.950;-122.338;2022-10-31T01:01:19;101554.34;;;13.68;80.16
70009;BME280;59542;37.950;-122.338;2022-10-31T01:03:45;101552.31;;;13.50;80.68
70009;BME280;59542;37.950;-122.338;2022-10-31T01:06:13;101557.88;;;13.35;81.75
70009;BME280;59542;37.950;-122.338;2022-10-31T01:08:40;101550.25;;;13.39;81.53
70009;BME280;59542;37.950;-122.338;2022-10-31T01:11:18;101558.50;;;13.37;81.75
70009;BME280;59542;37.950;-122.338;2022-10-31T01:13:46;101561.38;;;13.42;81.59
70009;BME280;59542;37.950;-122.338;2022-10-31T01:16:14;101564.91;;;13.23;82.83
70009;BME280;59542;37.950;-122.338;2022-10-31T01:18:41;101553.94;;;13.25;82.41
70009;BME280;59542;37.950;-122.338;2022-10-31T01:21:10;101567.75;;;13.08;82.82
70009;BME280;59542;37.950;-122.338;2022-10-31T01:23:36;101563.63;;;13.19;82.54
70009;BME280;59542;37.950;-122.338;2022-10-31T01:26:11;101563.06;;;13.30;81.95
70009;BME280;59542;37.950;-122.338;2022-10-31T01:28:43;101564.09;;;13.23;81.83
70009;BME280;59542;37.950;-122.338;2022-10-31T01:31:10;101560.34;;;13.17;82.41
70009;BME280;59542;37.950;-122.338;2022-10-31T01:33:37;101568.22;;;13.25;81.64
70009;BME280;59542;37.950;-122.338;2022-10-31T01:36:32;101566.72;;;13.09;82.14
70009;BME280;59542;37.950;-122.338;2022-10-31T01:39:02;101567.13;;;13.00;83.10
70009;BME280;59542;37.950;-122.338;2022-10-31T01:41:31;101565.50;;;13.12;82.24
70009;BME280;59542;37.950;-122.338;2022-10-31T01:44:00;101570.84;;;12.99;82.92
70009;BME280;59542;37.950;-122.338;2022-10-31T01:46:33;101564.69;;;13.25;81.72
70009;BME280;59542;37.950;-122.338;2022-10-31T01:49:02;101568.78;;;13.20;81.77
70009;BME280;59542;37.950;-122.338;2022-10-31T01:51:33;101565.50;;;13.18;81.79
70009;BME280;59542;37.950;-122.338;2022-10-31T01:54:04;101562.59;;;13.00;82.20
70009;BME280;59542;37.950;-122.338;2022-10-31T01:56:34;101573.13;;;13.15;82.03
70009;BME280;59542;37.950;-122.338;2022-10-31T01:59:05;101572.53;;;13.19;81.32
70009;BME280;59542;37.950;-122.338;2022-10-31T02:01:32;101578.09;;;13.11;81.79
70009;BME280;59542;37.950;-122.338;2022-10-31T02:03:58;101569.84;;;13.13;81.82
70009;BME280;59542;37.950;-122.338;2022-10-31T02:06:51;101560.56;;;13.22;81.31
70009;BME280;59542;37.950;-122.338;2022-10-31T02:09:19;101563.41;;;13.07;81.82
70009;BME280;59542;37.950;-122.338;2022-10-31T02:11:51;101565.50;;;13.12;82.03
70009;BME280;59542;37.950;-122.338;2022-10-31T02:14:22;101566.72;;;13.03;82.80
70009;BME280;59542;37.950;-122.338;2022-10-31T02:16:48;101568.59;;;13.15;81.88
70009;BME280;59542;37.950;-122.338;2022-10-31T02:19:21;101570.66;;;13.07;82.70
70009;BME280;59542;37.950;-122.338;2022-10-31T02:22:07;101571.47;;;13.14;82.07
70009;BME280;59542;37.950;-122.338;2022-10-31T02:27:46;101568.19;;;13.12;81.81
70009;BME280;59542;37.950;-122.338;2022-10-31T02:30:27;101569.44;;;13.16;81.94
70009;BME280;59542;37.950;-122.338;2022-10-31T02:44:21;101564.41;;;12.93;82.71
70009;BME280;59542;37.950;-122.338;2022-10-31T02:47:16;101567.31;;;12.98;82.81
70009;BME280;59542;37.950;-122.338;2022-10-31T02:49:47;101575.00;;;13.14;82.10
70009;BME280;59542;37.950;-122.338;2022-10-31T02:52:33;101580.97;;;13.10;82.49
70009;BME280;59542;37.950;-122.338;2022-10-31T02:57:51;101574.84;;;13.23;82.11
70009;BME280;59542;37.950;-122.338;2022-10-31T03:00:19;101582.44;;;13.19;82.35
70009;BME280;59542;37.950;-122.338;2022-10-31T03:08:54;101585.34;;;13.11;82.41
70009;BME280;59542;37.950;-122.338;2022-10-31T03:11:24;101591.53;;;13.05;82.88
70009;BME280;59542;37.950;-122.338;2022-10-31T03:14:04;101570.84;;;12.99;83.05
70009;BME280;59542;37.950;-122.338;2022-10-31T03:16:50;101581.78;;;13.04;83.94
70009;BME280;59542;37.950;-122.338;2022-10-31T03:19:18;101579.34;;;13.09;83.74
70009;BME280;59542;37.950;-122.338;2022-10-31T03:24:22;101585.06;;;12.86;85.25
70009;BME280;59542;37.950;-122.338;2022-10-31T03:26:53;101582.81;;;12.96;84.43
70009;BME280;59542;37.950;-122.338;2022-10-31T03:29:23;101588.00;;;12.98;84.58
70009;BME280;59542;37.950;-122.338;2022-10-31T03:34:22;101585.28;;;12.91;84.34
70009;BME280;59542;37.950;-122.338;2022-10-31T03:36:51;101583.41;;;12.78;84.72
70009;BME280;59542;37.950;-122.338;2022-10-31T03:39:21;101579.47;;;12.81;84.41
70009;BME280;59542;37.950;-122.338;2022-10-31T03:44:24;101568.50;;;12.69;84.89
70009;BME280;59542;37.950;-122.338;2022-10-31T03:46:52;101569.16;;;12.84;84.01
70009;BME280;59542;37.950;-122.338;2022-10-31T03:49:19;101571.22;;;12.82;83.99
70009;BME280;59542;37.950;-122.338;2022-10-31T04:00:27;101573.72;;;12.84;83.09
70009;BME280;59542;37.950;-122.338;2022-10-31T04:03:28;101581.53;;;12.72;83.96
70009;BME280;59542;37.950;-122.338;2022-10-31T04:05:59;101579.47;;;12.74;83.40
70009;BME280;59542;37.950;-122.338;2022-10-31T04:08:30;101586.81;;;12.52;84.12
70009;BME280;59542;37.950;-122.338;2022-10-31T04:11:01;101581.09;;;12.62;83.32
70009;BME280;59542;37.950;-122.338;2022-10-31T04:13:32;101575.28;;;12.58;83.11
70009;BME280;59542;37.950;-122.338;2022-10-31T04:15:59;101576.94;;;12.59;82.85
70009;BME280;59542;37.950;-122.338;2022-10-31T04:18:26;101578.97;;;12.51;83.10
70009;BME280;59542;37.950;-122.338;2022-10-31T04:21:04;101580.59;;;12.45;82.95
70009;BME280;59542;37.950;-122.338;2022-10-31T04:23:31;101576.47;;;12.49;82.92
70009;BME280;59542;37.950;-122.338;2022-10-31T04:25:58;101583.09;;;12.47;82.57
70009;BME280;59542;37.950;-122.338;2022-10-31T04:28:24;101576.44;;;12.42;82.38
70009;BME280;59542;37.950;-122.338;2022-10-31T04:30:50;101573.59;;;12.44;82.61
70009;BME280;59542;37.950;-122.338;2022-10-31T04:33:16;101566.38;;;12.51;82.42
70009;BME280;59542;37.950;-122.338;2022-10-31T04:35:43;101562.66;;;12.52;82.11
70009;BME280;59542;37.950;-122.338;2022-10-31T04:38:09;101561.81;;;12.45;81.91
70009;BME280;59542;37.950;-122.338;2022-10-31T04:40:35;101566.59;;;12.50;81.56
70009;BME280;59542;37.950;-122.338;2022-10-31T04:43:01;101561.59;;;12.47;81.65
70009;BME280;59542;37.950;-122.338;2022-10-31T04:45:28;101575.03;;;12.47;82.04
70009;BME280;59542;37.950;-122.338;2022-10-31T04:47:54;101570.91;;;12.44;82.23
70009;BME280;59542;37.950;-122.338;2022-10-31T04:50:20;101575.03;;;12.47;82.38
70009;BME280;59542;37.950;-122.338;2022-10-31T04:52:46;101578.97;;;12.51;81.84
70009;BME280;59542;37.950;-122.338;2022-10-31T04:55:13;101582.25;;;12.46;82.05
70009;BME280;59542;37.950;-122.338;2022-10-31T04:57:44;101580.47;;;12.19;83.45
70009;BME280;59542;37.950;-122.338;2022-10-31T05:00:11;101582.34;;;12.18;83.54
70009;BME280;59542;37.950;-122.338;2022-10-31T05:02:48;101583.59;;;12.22;82.59
70009;BME280;59542;37.950;-122.338;2022-10-31T05:05:17;101585.03;;;12.25;82.25
70009;BME280;59542;37.950;-122.338;2022-10-31T05:07:45;101587.09;;;12.23;82.78
70009;BME280;59542;37.950;-122.338;2022-10-31T05:10:14;101582.81;;;12.35;82.00
70009;BME280;59542;37.950;-122.338;2022-10-31T05:12:49;101586.47;;;12.21;82.05
70009;BME280;59542;37.950;-122.338;2022-10-31T05:15:17;101581.31;;;12.26;81.94
70009;BME280;59542;37.950;-122.338;2022-10-31T05:17:44;101584.84;;;12.26;81.67
70009;BME280;59542;37.950;-122.338;2022-10-31T05:20:14;101580.81;;;12.09;82.75
70009;BME280;59542;37.950;-122.338;2022-10-31T05:22:52;101583.38;;;12.17;82.41
70009;BME280;59542;37.950;-122.338;2022-10-31T05:25:20;101587.09;;;12.23;82.11
70009;BME280;59542;37.950;-122.338;2022-10-31T05:27:48;101583.41;;;12.24;81.99
70009;BME280;59542;37.950;-122.338;2022-10-31T05:30:17;101586.66;;;12.19;81.89
70009;BME280;59542;37.950;-122.338;2022-10-31T05:32:46;101588.31;;;12.20;82.07
70009;BME280;59542;37.950;-122.338;2022-10-31T05:35:15;101593.06;;;12.18;81.96
70009;BME280;59542;37.950;-122.338;2022-10-31T05:37:42;101594.66;;;12.06;82.92
70009;BME280;59542;37.950;-122.338;2022-10-31T05:40:10;101593.22;;;12.10;82.77
70009;BME280;59542;37.950;-122.338;2022-10-31T05:42:41;101594.50;;;12.21;82.20
70009;BME280;59542;37.950;-122.338;2022-10-31T05:45:12;101590.72;;;12.08;82.25
70009;BME280;59542;37.950;-122.338;2022-10-31T05:47:39;101596.19;;;12.22;82.00
70009;BME280;59542;37.950;-122.338;2022-10-31T05:50:06;101600.06;;;12.12;82.34
70009;BME280;59542;37.950;-122.338;2022-10-31T05:52:32;101599.00;;;12.07;82.83
70009;BME280;59542;37.950;-122.338;2022-10-31T05:54:59;101595.97;;;12.17;82.37
70009;BME280;59542;37.950;-122.338;2022-10-31T05:57:25;101599.19;;;12.05;83.08
70009;BME280;59542;37.950;-122.338;2022-10-31T05:59:51;101600.44;;;12.09;82.49
70009;BME280;59542;37.950;-122.338;2022-10-31T06:02:21;101599.06;;;12.20;82.25
70009;BME280;59542;37.950;-122.338;2022-10-31T06:04:48;101596.31;;;12.07;82.84
70009;BME280;59542;37.950;-122.338;2022-10-31T06:07:14;101603.09;;;12.03;82.79
70009;BME280;59542;37.950;-122.338;2022-10-31T06:09:40;101598.19;;;12.13;82.63
70009;BME280;59542;37.950;-122.338;2022-10-31T06:12:06;101607.31;;;12.19;82.41
70009;BME280;59542;37.950;-122.338;2022-10-31T06:14:32;101610.81;;;12.19;82.51
70009;BME280;59542;37.950;-122.338;2022-10-31T06:16:59;101611.00;;;12.11;83.06
70009;BME280;59542;37.950;-122.338;2022-10-31T06:19:25;101611.97;;;12.03;83.71
70009;BME280;59542;37.950;-122.338;2022-10-31T06:21:51;101611.66;;;12.20;83.21
70009;BME280;59542;37.950;-122.338;2022-10-31T06:24:17;101614.88;;;12.08;83.30
70009;BME280;59542;37.950;-122.338;2022-10-31T06:26:43;101602.28;;;12.09;83.52
70009;BME280;59542;37.950;-122.338;2022-10-31T06:29:09;101615.28;;;12.05;83.63
70009;BME280;59542;37.950;-122.338;2022-10-31T06:31:36;101605.63;;;12.11;83.34
70009;BME280;59542;37.950;-122.338;2022-10-31T06:34:02;101601.66;;;12.07;83.54
70009;BME280;59542;37.950;-122.338;2022-10-31T06:36:28;101597.56;;;12.11;82.86
70009;BME280;59542;37.950;-122.338;2022-10-31T06:38:54;101596.31;;;12.07;83.17
70009;BME280;59542;37.950;-122.338;2022-10-31T06:41:20;101592.34;;;12.03;83.18
70009;BME280;59542;37.950;-122.338;2022-10-31T06:43:47;101587.63;;;12.05;82.71
70009;BME280;59542;37.950;-122.338;2022-10-31T06:46:13;101584.75;;;12.06;83.20
70009;BME280;59542;37.950;-122.338;2022-10-31T06:48:41;101585.94;;;12.04;83.12
70009;BME280;59542;37.950;-122.338;2022-10-31T06:51:07;101576.69;;;12.06;83.24
70009;BME280;59542;37.950;-122.338;2022-10-31T06:53:33;101568.75;;;11.92;84.15
70009;BME280;59542;37.950;-122.338;2022-10-31T06:56:00;101572.81;;;12.15;83.05
70009;BME280;59542;37.950;-122.338;2022-10-31T06:58:26;101578.81;;;12.18;82.93
70009;BME280;59542;37.950;-122.338;2022-10-31T07:00:52;101562.50;;;12.19;82.09
70009;BME280;59542;37.950;-122.338;2022-10-31T07:03:18;101558.66;;;11.94;83.43
70009;BME280;59542;37.950;-122.338;2022-10-31T07:05:45;101561.28;;;11.87;83.58
70009;BME280;59542;37.950;-122.338;2022-10-31T07:08:13;101556.38;;;11.91;83.39
70009;BME280;59542;37.950;-122.338;2022-10-31T07:10:41;101561.81;;;11.76;83.63
70009;BME280;59542;37.950;-122.338;2022-10-31T07:13:13;101557.16;;;11.84;83.47
70009;BME280;59542;37.950;-122.338;2022-10-31T07:15:41;101556.75;;;11.87;82.86
70009;BME280;59542;37.950;-122.338;2022-10-31T07:18:09;101561.88;;;11.82;83.03
70009;BME280;59542;37.950;-122.338;2022-10-31T07:20:36;101566.25;;;11.62;83.80
70009;BME280;59542;37.950;-122.338;2022-10-31T07:23:03;101559.81;;;11.56;84.05
70009;BME280;59542;37.950;-122.338;2022-10-31T07:25:29;101550.91;;;11.77;82.95
70009;BME280;59542;37.950;-122.338;2022-10-31T07:27:56;101549.75;;;11.86;82.54
70009;BME280;59542;37.950;-122.338;2022-10-31T07:30:22;101541.44;;;11.81;82.72
70009;BME280;59542;37.950;-122.338;2022-10-31T07:32:49;101547.97;;;11.72;83.31
70009;BME280;59542;37.950;-122.338;2022-10-31T07:35:22;101539.88;;;11.66;83.46
70009;BME280;59542;37.950;-122.338;2022-10-31T07:37:49;101546.31;;;11.71;83.36
70009;BME280;59542;37.950;-122.338;2022-10-31T07:40:16;101554.50;;;11.63;83.80
70009;BME280;59542;37.950;-122.338;2022-10-31T07:42:44;101547.44;;;11.55;83.79
70009;BME280;59542;37.950;-122.338;2022-10-31T07:45:13;101548.66;;;11.53;84.24
70009;BME280;59542;37.950;-122.338;2022-10-31T07:50:15;101552.75;;;11.49;84.42
70009;BME280;59542;37.950;-122.338;2022-10-31T07:52:41;101555.28;;;11.57;83.82
70009;BME280;59542;37.950;-122.338;2022-10-31T07:55:08;101549.31;;;11.55;84.38
70009;BME280;59542;37.950;-122.338;2022-10-31T07:57:35;101553.09;;;11.67;83.29
70009;BME280;59542;37.950;-122.338;2022-10-31T08:00:07;101560.31;;;11.67;83.20
70009;BME280;59542;37.950;-122.338;2022-10-31T08:02:33;101554.25;;;11.58;83.67
70009;BME280;59542;37.950;-122.338;2022-10-31T08:04:59;101547.09;;;11.65;83.26
70009;BME280;59542;37.950;-122.338;2022-10-31T08:07:28;101552.19;;;11.81;82.57
70009;BME280;59542;37.950;-122.338;2022-10-31T08:09:55;101555.25;;;11.78;82.56
70009;BME280;59542;37.950;-122.338;2022-10-31T08:12:22;101556.03;;;11.72;82.78
70009;BME280;59542;37.950;-122.338;2022-10-31T08:14:48;101560.22;;;11.81;82.62
70009;BME280;59542;37.950;-122.338;2022-10-31T08:17:15;101553.53;;;11.71;82.77
70009;BME280;59542;37.950;-122.338;2022-10-31T08:19:41;101537.66;;;11.76;82.47
70009;BME280;59542;37.950;-122.338;2022-10-31T08:22:07;101518.72;;;11.77;82.48
70009;BME280;59542;37.950;-122.338;2022-10-31T08:24:34;101512.94;;;11.80;82.17
70009;BME280;59542;37.950;-122.338;2022-10-31T08:27:00;101506.28;;;11.70;82.46
70009;BME280;59542;37.950;-122.338;2022-10-31T08:29:26;101511.69;;;11.76;82.08
70009;BME280;59542;37.950;-122.338;2022-10-31T08:31:52;101518.78;;;11.84;81.79
70009;BME280;59542;37.950;-122.338;2022-10-31T08:34:18;101515.91;;;11.57;83.08
70009;BME280;59542;37.950;-122.338;2022-10-31T08:36:45;101527.53;;;11.71;82.53
70009;BME280;59542;37.950;-122.338;2022-10-31T08:39:11;101526.00;;;11.83;81.86
70009;BME280;59542;37.950;-122.338;2022-10-31T08:41:38;101525.69;;;11.72;82.41
70009;BME280;59542;37.950;-122.338;2022-10-31T08:44:04;101519.47;;;11.71;82.20
70009;BME280;59542;37.950;-122.338;2022-10-31T08:46:30;101526.56;;;11.79;81.84
70009;BME280;59542;37.950;-122.338;2022-10-31T08:48:57;101525.81;;;11.85;81.52
70009;BME280;59542;37.950;-122.338;2022-10-31T08:51:23;101515.31;;;11.62;82.25
70009;BME280;59542;37.950;-122.338;2022-10-31T08:53:49;101521.16;;;11.72;81.75
70009;BME280;59542;37.950;-122.338;2022-10-31T08:56:16;101521.78;;;11.74;81.80
70009;BME280;59542;37.950;-122.338;2022-10-31T08:58:42;101525.00;;;11.63;82.27
70009;BME280;59542;37.950;-122.338;2022-10-31T09:01:08;101524.84;;;11.71;82.04
70009;BME280;59542;37.950;-122.338;2022-10-31T09:03:34;101531.41;;;11.62;82.51
70009;BME280;59542;37.950;-122.338;2022-10-31T09:06:02;101522.38;;;11.70;82.10
70009;BME280;59542;37.950;-122.338;2022-10-31T09:08:32;101508.53;;;11.66;82.56
70009;BME280;59542;37.950;-122.338;2022-10-31T09:10:59;101506.69;;;11.67;82.73
70009;BME280;59542;37.950;-122.338;2022-10-31T09:13:25;101501.91;;;11.62;83.32
70009;BME280;59542;37.950;-122.338;2022-10-31T09:15:52;101506.31;;;11.76;82.79
70009;BME280;59542;37.950;-122.338;2022-10-31T09:18:21;101495.56;;;11.70;82.83
70009;BME280;59542;37.950;-122.338;2022-10-31T09:20:49;101492.22;;;11.61;83.69
70009;BME280;59542;37.950;-122.338;2022-10-31T09:23:17;101490.44;;;11.75;83.23
70009;BME280;59542;37.950;-122.338;2022-10-31T09:25:45;101482.44;;;11.81;82.97
70009;BME280;59542;37.950;-122.338;2022-10-31T09:28:13;101474.13;;;11.76;82.97
70009;BME280;59542;37.950;-122.338;2022-10-31T09:30:40;101478.56;;;11.91;82.19
70009;BME280;59542;37.950;-122.338;2022-10-31T09:33:10;101490.97;;;11.92;81.74
70009;BME280;59542;37.950;-122.338;2022-10-31T09:35:37;101483.94;;;11.91;81.90
70009;BME280;59542;37.950;-122.338;2022-10-31T09:38:06;101479.59;;;11.83;82.64
70009;BME280;59542;37.950;-122.338;2022-10-31T09:40:40;101488.88;;;11.87;82.11
70009;BME280;59542;37.950;-122.338;2022-10-31T09:43:29;101482.78;;;11.72;83.70
70009;BME280;59542;37.950;-122.338;2022-10-31T09:51:55;101472.81;;;11.66;83.80
70009;BME280;59542;37.950;-122.338;2022-10-31T09:54:48;101468.94;;;11.68;83.60
70009;BME280;59542;37.950;-122.338;2022-10-31T09:57:22;101475.22;;;11.82;83.17
70009;BME280;59542;37.950;-122.338;2022-10-31T09:59:50;101469.94;;;11.95;82.67
70009;BME280;59542;37.950;-122.338;2022-10-31T10:02:54;101475.13;;;12.03;82.32
70009;BME280;59542;37.950;-122.338;2022-10-31T10:05:14;101475.53;;;12.00;82.21
70009;BME280;59542;37.950;-122.338;2022-10-31T10:08:04;101462.69;;;11.89;83.16
70009;BME280;59542;37.950;-122.338;2022-10-31T10:18:43;101464.06;;;11.78;83.37
70009;BME280;59542;37.950;-122.338;2022-10-31T10:21:35;101477.16;;;11.95;82.93
70009;BME280;59542;37.950;-122.338;2022-10-31T10:29:52;101460.88;;;12.03;83.01
70009;BME280;59542;37.950;-122.338;2022-10-31T10:32:28;101456.91;;;11.92;83.29
70009;BME280;59542;37.950;-122.338;2022-10-31T10:35:14;101454.47;;;12.04;82.54
70009;BME280;59542;37.950;-122.338;2022-10-31T10:37:45;101449.53;;;12.07;82.68
70009;BME280;59542;37.950;-122.338;2022-10-31T10:40:20;101446.63;;;11.96;83.11
70009;BME280;59542;37.950;-122.338;2022-10-31T10:46:05;101435.09;;;12.08;82.42
70009;BME280;59542;37.950;-122.338;2022-10-31T10:49:19;101439.84;;;12.00;82.79
70009;BME280;59542;37.950;-122.338;2022-10-31T10:57:21;101427.28;;;12.13;82.54
70009;BME280;59542;37.950;-122.338;2022-10-31T10:59:48;101427.03;;;12.02;83.05
70009;BME280;59542;37.950;-122.338;2022-10-31T11:02:20;101433.84;;;12.04;83.28
70009;BME280;59542;37.950;-122.338;2022-10-31T11:04:51;101431.81;;;12.13;82.91
70009;BME280;59542;37.950;-122.338;2022-10-31T11:07:18;101423.97;;;12.05;82.97
70009;BME280;59542;37.950;-122.338;2022-10-31T11:09:45;101419.00;;;12.15;82.81
70009;BME280;59542;37.950;-122.338;2022-10-31T11:12:24;101420.66;;;12.09;82.95
70009;BME280;59542;37.950;-122.338;2022-10-31T11:14:55;101421.47;;;12.03;83.10
70009;BME280;59542;37.950;-122.338;2022-10-31T11:17:32;101412.38;;;12.04;83.21
70009;BME280;59542;37.950;-122.338;2022-10-31T11:20:26;101408.50;;;12.13;82.82
70009;BME280;59542;37.950;-122.338;2022-10-31T11:23:24;101415.28;;;12.09;82.72
70009;BME280;59542;37.950;-122.338;2022-10-31T11:25:59;101419.44;;;12.12;82.77
70009;BME280;59542;37.950;-122.338;2022-10-31T11:28:28;101416.53;;;12.13;82.74
70009;BME280;59542;37.950;-122.338;2022-10-31T11:31:06;101416.59;;;12.33;81.77
70009;BME280;59542;37.950;-122.338;2022-10-31T11:33:39;101415.56;;;12.28;82.01
70009;BME280;59542;37.950;-122.338;2022-10-31T11:36:22;101413.88;;;12.27;81.91
70009;BME280;59542;37.950;-122.338;2022-10-31T11:38:50;101424.22;;;12.30;82.05
70009;BME280;59542;37.950;-122.338;2022-10-31T11:41:27;101410.41;;;12.39;81.82
70009;BME280;59542;37.950;-122.338;2022-10-31T11:44:03;101411.63;;;12.30;82.27
70009;BME280;59542;37.950;-122.338;2022-10-31T11:46:46;101403.34;;;12.32;82.84
70009;BME280;59542;37.950;-122.338;2022-10-31T11:49:17;101405.88;;;12.47;82.08
70009;BME280;59542;37.950;-122.338;2022-10-31T11:51:51;101398.84;;;12.46;82.20
70009;BME280;59542;37.950;-122.338;2022-10-31T11:54:45;101404.66;;;12.56;81.40
70009;BME280;59542;37.950;-122.338;2022-10-31T11:57:29;101403.63;;;12.57;81.10
70009;BME280;59542;37.950;-122.338;2022-10-31T11:59:58;101403.84;;;12.55;81.09
70009;BME280;59542;37.950;-122.338;2022-10-31T12:02:25;101396.38;;;12.64;80.95
70009;BME280;59542;37.950;-122.338;2022-10-31T12:05:10;101399.69;;;12.59;80.74
70009;BME280;59542;37.950;-122.338;2022-10-31T12:07:43;101396.38;;;12.44;81.64
70009;BME280;59542;37.950;-122.338;2022-10-31T12:10:11;101402.38;;;12.53;81.14
70009;BME280;59542;37.950;-122.338;2022-10-31T12:15:36;101403.41;;;12.58;80.60
70009;BME280;59542;37.950;-122.338;2022-10-31T12:21:15;101403.00;;;12.75;80.20
70009;BME280;59542;37.950;-122.338;2022-10-31T12:32:25;101403.22;;;12.66;80.17
70009;BME280;59542;37.950;-122.338;2022-10-31T12:41:30;101396.78;;;12.54;80.91
70009;BME280;59542;37.950;-122.338;2022-10-31T12:49:37;101409.19;;;12.62;80.63
70009;BME280;59542;37.950;-122.338;2022-10-31T12:57:38;101397.22;;;12.78;79.78
70009;BME280;59542;37.950;-122.338;2022-10-31T13:00:12;101395.97;;;12.74;79.88
70009;BME280;59542;37.950;-122.338;2022-10-31T13:05:43;101395.16;;;12.73;80.42
70009;BME280;59542;37.950;-122.338;2022-10-31T13:08:17;101381.50;;;12.75;80.08
70009;BME280;59542;37.950;-122.338;2022-10-31T13:11:12;101384.63;;;12.78;79.98
70009;BME280;59542;37.950;-122.338;2022-10-31T13:16:10;101384.84;;;12.83;79.89
70009;BME280;59542;37.950;-122.338;2022-10-31T13:19:10;101382.53;;;12.93;79.36
70009;BME280;59542;37.950;-122.338;2022-10-31T13:22:00;101372.19;;;12.97;78.92
70009;BME280;59542;37.950;-122.338;2022-10-31T13:24:54;101372.41;;;12.95;78.72
70009;BME280;59542;37.950;-122.338;2022-10-31T13:27:25;101366.00;;;12.97;78.73
70009;BME280;59542;37.950;-122.338;2022-10-31T13:30:02;101363.72;;;12.93;78.79
70009;BME280;59542;37.950;-122.338;2022-10-31T13:32:41;101374.88;;;13.04;78.16
70009;BME280;59542;37.950;-122.338;2022-10-31T13:35:27;101373.25;;;12.89;78.94
70009;BME280;59542;37.950;-122.338;2022-10-31T13:40:55;101367.63;;;13.04;78.34
70009;BME280;59542;37.950;-122.338;2022-10-31T13:48:57;101369.72;;;12.82;79.32
70009;BME280;59542;37.950;-122.338;2022-10-31T13:51:31;101369.31;;;12.79;79.51
70009;BME280;59542;37.950;-122.338;2022-10-31T13:54:06;101367.25;;;12.81;79.53
70009;BME280;59542;37.950;-122.338;2022-10-31T13:56:49;101370.34;;;12.84;79.50
70009;BME280;59542;37.950;-122.338;2022-10-31T13:59:25;101368.47;;;12.91;79.25
70009;BME280;59542;37.950;-122.338;2022-10-31T14:01:55;101365.78;;;13.05;78.68
70009;BME280;59542;37.950;-122.338;2022-10-31T14:04:30;101362.06;;;13.06;78.88
70009;BME280;59542;37.950;-122.338;2022-10-31T14:07:07;101355.59;;;13.20;78.24
70009;BME280;59542;37.950;-122.338;2022-10-31T14:09:38;101353.38;;;13.24;78.16
70009;BME280;59542;37.950;-122.338;2022-10-31T14:12:21;101356.22;;;13.15;78.59
70009;BME280;59542;37.950;-122.338;2022-10-31T14:14:52;101363.94;;;12.92;79.76
70009;BME280;59542;37.950;-122.338;2022-10-31T14:17:26;101369.06;;;13.20;78.44
70009;BME280;59542;37.950;-122.338;2022-10-31T14:20:00;101362.88;;;13.13;78.57
70009;BME280;59542;37.950;-122.338;2022-10-31T14:22:31;101352.53;;;13.10;78.46
70009;BME280;59542;37.950;-122.338;2022-10-31T14:24:58;101350.69;;;13.04;78.24
70009;BME280;59542;37.950;-122.338;2022-10-31T14:29:51;101348.00;;;12.97;78.63
70009;BME280;59542;37.950;-122.338;2022-10-31T14:46:11;101367.44;;;12.92;78.07
70009;BME280;59542;37.950;-122.338;2022-10-31T14:49:10;101357.13;;;12.63;79.11
70009;BME280;59542;37.950;-122.338;2022-10-31T14:51:46;101363.13;;;12.78;79.10